Historyczne dane pomiarowe

Dodano dane terminowe – wersja testowa.

Dane z okresu 1951-2019

Wersja bazy: 1.34 [2019-03-16, lista zmian], aktualizacja planowana na 2019-04-15

Dane meteo z obszaru Polski uzyskane na podstawie danych udostępnionych przez Instytut Meteorologii i Gospodarki Wodnej – Państwowy Instytut Badawczy.

 

Wybierz Datę:    

       

TemperaturaWilgotnośćZachmurzenieWiatrCiśnienieWidzialnośćZjawiska
 Data    tng td wb rh cc ccl cl cm ch dir g1 g2 mslp ppp      
1999-07-30 00:00:00 14.4--- 10.5 12.277wxwxwx2wx--1018.6 994.0 0.0---wx
1999-07-30 01:00:00 13.6--- 9.6 11.477wxwx2wx--1018.7 994.0----wx
1999-07-30 02:00:00 13.0--- 9.3 11.078wxwx1wx--1018.6 993.9----wx
1999-07-30 03:00:00 10.8--- 9.3 10.091wxwxwx1wx--1018.8 993.9----wx
1999-07-30 04:00:00 10.6--- 9.5 10.093wxwx1wx--1018.5 993.6----wx
1999-07-30 05:00:00 13.4--- 11.3 12.287wxwx1wx--1018.3 993.6----wx
1999-07-30 06:00:00 15.6--- 11.4 13.276wxwxwx2wx--1018.1 993.6 0.0---wx
1999-07-30 07:00:00 17.8--- 11.1 13.965wxwxwxwxwx2wx--1018.0 993.7----wx
1999-07-30 08:00:00 21.0--- 12.5 15.958wxwxwxwx3wx--1017.6 993.6----wx
1999-07-30 09:00:00 22.3--- 9.7 15.045wxwxwx3wx--1017.2 993.3----wx
1999-07-30 10:00:00 23.8--- 10.8 16.144wxwxwx3wx--1017.1 993.3----wx
1999-07-30 11:00:00 23.4--- 8.0 14.737wxwxwx4wx--1016.5 992.7----wx
1999-07-30 12:00:00 24.4--- 9.4 15.739wxwxwx4wx--1016.0 992.3 0.0---wx
1999-07-30 13:00:00 25.1--- 9.8 16.138wxwxwx4wx--1015.5 991.9----wx
1999-07-30 14:00:00 25.1--- 9.8 16.138wxwxwx4wx--1015.2 991.6----wx
1999-07-30 15:00:00 25.4--- 9.0 15.935wxwxwx4wx--1014.9 991.3----wx
1999-07-30 16:00:00 25.0--- 7.9 15.334wxwxwx4wx--1014.8 991.2----wx
1999-07-30 17:00:00 24.6--- 7.3 14.933wxwxwx4wx--1015.0 991.3----wx
1999-07-30 18:00:00 23.3--- 8.6 14.939wxwxwx2wx--1015.4 991.6 0.0---wx
1999-07-30 19:00:00 19.6--- 9.4 13.852wxwxwx2wx--1016.2 992.1----wx
1999-07-30 20:00:00 16.8--- 9.5 12.762wxwxwx2wx--1016.4 992.1----wx
1999-07-30 21:00:00 15.8--- 9.7 12.467wxwxwx2wx--1016.7 992.3----wx
1999-07-30 22:00:00 15.5--- 9.4 12.167wxwx2wx--1017.0 992.5----wx
1999-07-30 23:00:00 14.4--- 9.5 11.773wxwx2wx--1017.2 992.6----wx

 

Źródłem pochodzenia danych jest Instytut Meteorologii i Gospodarki Wodnej – Państwowy Instytut Badawczy. Dane Instytutu Meteorologii i Gospodarki Wodnej – Państwowego Instytutu Badawczego zostały przetworzone.

Dane źródłowe można odnaleźć na stronie https://dane.imgw.pl